sensor_id;sensor_type;location;lat;lon;timestamp;pressure;altitude;pressure_sealevel;temperature;humidity
15750;BME280;7976;52.526;13.326;2023-02-28T00:00:04;102695.00;;;3.88;69.99
15750;BME280;7976;52.526;13.326;2023-02-28T00:02:36;102688.03;;;3.85;69.94
15750;BME280;7976;52.526;13.326;2023-02-28T00:05:08;102694.84;;;3.80;70.22
15750;BME280;7976;52.526;13.326;2023-02-28T00:07:36;102699.09;;;3.78;70.23
15750;BME280;7976;52.526;13.326;2023-02-28T00:10:06;102687.06;;;3.80;70.09
15750;BME280;7976;52.526;13.326;2023-02-28T00:12:34;102693.06;;;3.79;70.13
15750;BME280;7976;52.526;13.326;2023-02-28T00:15:05;102704.31;;;3.79;70.33
15750;BME280;7976;52.526;13.326;2023-02-28T00:17:33;102704.22;;;3.75;70.14
15750;BME280;7976;52.526;13.326;2023-02-28T00:20:02;102700.78;;;3.76;70.42
15750;BME280;7976;52.526;13.326;2023-02-28T00:22:45;102699.84;;;3.74;70.27
15750;BME280;7976;52.526;13.326;2023-02-28T00:25:24;102705.13;;;3.78;70.44
15750;BME280;7976;52.526;13.326;2023-02-28T00:28:05;102700.78;;;3.76;70.29
15750;BME280;7976;52.526;13.326;2023-02-28T00:30:45;102697.44;;;3.80;70.42
15750;BME280;7976;52.526;13.326;2023-02-28T00:33:12;102704.28;;;3.78;70.38
15750;BME280;7976;52.526;13.326;2023-02-28T00:35:39;102704.34;;;3.81;70.24
15750;BME280;7976;52.526;13.326;2023-02-28T00:38:12;102712.09;;;3.81;70.44
15750;BME280;7976;52.526;13.326;2023-02-28T00:40:44;102697.50;;;3.84;70.58
15750;BME280;7976;52.526;13.326;2023-02-28T00:43:14;102707.91;;;3.86;70.19
15750;BME280;7976;52.526;13.326;2023-02-28T00:45:44;102702.78;;;3.89;70.28
15750;BME280;7976;52.526;13.326;2023-02-28T00:48:11;102700.19;;;3.89;70.28
15750;BME280;7976;52.526;13.326;2023-02-28T00:50:42;102710.75;;;3.98;70.30
15750;BME280;7976;52.526;13.326;2023-02-28T00:53:11;102709.91;;;3.99;69.90
15750;BME280;7976;52.526;13.326;2023-02-28T00:55:38;102700.22;;;3.91;69.22
15750;BME280;7976;52.526;13.326;2023-02-28T00:58:07;102706.19;;;3.87;69.49
15750;BME280;7976;52.526;13.326;2023-02-28T01:00:34;102712.31;;;3.90;69.19
15750;BME280;7976;52.526;13.326;2023-02-28T01:03:01;102703.69;;;3.91;69.18
15750;BME280;7976;52.526;13.326;2023-02-28T01:05:29;102706.22;;;3.88;69.21
15750;BME280;7976;52.526;13.326;2023-02-28T01:07:57;102707.13;;;3.90;69.24
15750;BME280;7976;52.526;13.326;2023-02-28T01:10:34;102703.56;;;3.85;69.02
15750;BME280;7976;52.526;13.326;2023-02-28T01:13:03;102696.63;;;3.84;69.00
15750;BME280;7976;52.526;13.326;2023-02-28T01:15:32;102705.34;;;3.88;69.27
15750;BME280;7976;52.526;13.326;2023-02-28T01:17:59;102713.03;;;3.83;69.10
15750;BME280;7976;52.526;13.326;2023-02-28T01:20:26;102700.94;;;3.83;69.14
15750;BME280;7976;52.526;13.326;2023-02-28T01:23:01;102706.22;;;3.88;69.13
15750;BME280;7976;52.526;13.326;2023-02-28T01:25:28;102698.44;;;3.87;68.97
15750;BME280;7976;52.526;13.326;2023-02-28T01:28:00;102696.69;;;3.87;68.83
15750;BME280;7976;52.526;13.326;2023-02-28T01:30:28;102691.47;;;3.85;68.69
15750;BME280;7976;52.526;13.326;2023-02-28T01:32:57;102693.13;;;3.82;68.88
15750;BME280;7976;52.526;13.326;2023-02-28T01:35:25;102691.34;;;3.78;68.62
15750;BME280;7976;52.526;13.326;2023-02-28T01:37:52;102686.22;;;3.81;69.12
15750;BME280;7976;52.526;13.326;2023-02-28T01:40:23;102690.47;;;3.79;68.97
15750;BME280;7976;52.526;13.326;2023-02-28T01:42:50;102686.22;;;3.81;68.81
15750;BME280;7976;52.526;13.326;2023-02-28T01:45:24;102693.09;;;3.80;69.04
15750;BME280;7976;52.526;13.326;2023-02-28T01:47:57;102682.72;;;3.79;69.01
15750;BME280;7976;52.526;13.326;2023-02-28T01:50:29;102682.81;;;3.83;69.11
15750;BME280;7976;52.526;13.326;2023-02-28T01:53:03;102681.06;;;3.82;69.36
15750;BME280;7976;52.526;13.326;2023-02-28T01:55:32;102690.53;;;3.82;69.02
15750;BME280;7976;52.526;13.326;2023-02-28T01:58:04;102694.91;;;3.83;69.46
15750;BME280;7976;52.526;13.326;2023-02-28T02:00:32;102687.19;;;3.86;69.33
15750;BME280;7976;52.526;13.326;2023-02-28T02:03:07;102690.66;;;3.87;69.14
15750;BME280;7976;52.526;13.326;2023-02-28T02:05:38;102687.19;;;3.86;69.31
15750;BME280;7976;52.526;13.326;2023-02-28T02:08:10;102690.75;;;3.91;69.41
15750;BME280;7976;52.526;13.326;2023-02-28T02:10:42;102694.19;;;3.90;69.46
15750;BME280;7976;52.526;13.326;2023-02-28T02:13:37;102685.47;;;3.87;69.44
15750;BME280;7976;52.526;13.326;2023-02-28T02:16:23;102687.06;;;3.80;69.51
15750;BME280;7976;52.526;13.326;2023-02-28T02:19:06;102693.75;;;3.72;69.87
15750;BME280;7976;52.526;13.326;2023-02-28T02:22:21;102695.47;;;3.70;69.64
15750;BME280;7976;52.526;13.326;2023-02-28T02:25:18;102690.28;;;3.70;69.95
15750;BME280;7976;52.526;13.326;2023-02-28T02:35:06;102686.72;;;3.65;70.46
15750;BME280;7976;52.526;13.326;2023-02-28T02:37:48;102687.47;;;3.59;70.90
15750;BME280;7976;52.526;13.326;2023-02-28T02:40:22;102690.00;;;3.58;71.09
15750;BME280;7976;52.526;13.326;2023-02-28T02:42:59;102686.47;;;3.54;70.94
15750;BME280;7976;52.526;13.326;2023-02-28T02:45:51;102690.69;;;3.51;71.00
15750;BME280;7976;52.526;13.326;2023-02-28T02:48:27;102689.03;;;3.53;71.24
15750;BME280;7976;52.526;13.326;2023-02-28T02:51:01;102690.69;;;3.51;71.81
15750;BME280;7976;52.526;13.326;2023-02-28T02:53:36;102694.19;;;3.51;71.34
15750;BME280;7976;52.526;13.326;2023-02-28T02:56:07;102694.91;;;3.46;71.11
15750;BME280;7976;52.526;13.326;2023-02-28T02:58:40;102683.56;;;3.41;71.36
15750;BME280;7976;52.526;13.326;2023-02-28T03:01:15;102679.31;;;3.43;71.70
15750;BME280;7976;52.526;13.326;2023-02-28T03:03:55;102693.16;;;3.45;71.98
15750;BME280;7976;52.526;13.326;2023-02-28T03:06:24;102682.75;;;3.43;72.24
15750;BME280;7976;52.526;13.326;2023-02-28T03:08:51;102692.25;;;3.43;72.14
15750;BME280;7976;52.526;13.326;2023-02-28T03:11:19;102691.38;;;3.44;71.99
15750;BME280;7976;52.526;13.326;2023-02-28T03:14:08;102692.22;;;3.41;72.35
15750;BME280;7976;52.526;13.326;2023-02-28T03:17:00;102691.19;;;3.35;72.20
15750;BME280;7976;52.526;13.326;2023-02-28T03:19:45;102701.53;;;3.35;72.30
15750;BME280;7976;52.526;13.326;2023-02-28T03:22:40;102699.75;;;3.32;72.40
15750;BME280;7976;52.526;13.326;2023-02-28T03:25:21;102703.97;;;3.29;72.59
15750;BME280;7976;52.526;13.326;2023-02-28T03:28:01;102702.31;;;3.32;72.35
15750;BME280;7976;52.526;13.326;2023-02-28T03:30:39;102703.22;;;3.33;72.95
15750;BME280;7976;52.526;13.326;2023-02-28T03:33:14;102712.63;;;3.31;72.79
15750;BME280;7976;52.526;13.326;2023-02-28T03:35:48;102712.44;;;3.23;72.78
15750;BME280;7976;52.526;13.326;2023-02-28T03:38:28;102714.91;;;3.19;73.02
15750;BME280;7976;52.526;13.326;2023-02-28T03:41:05;102715.88;;;3.22;73.03
15750;BME280;7976;52.526;13.326;2023-02-28T03:43:39;102701.09;;;3.18;73.58
15750;BME280;7976;52.526;13.326;2023-02-28T03:46:19;102713.22;;;3.19;73.51
15750;BME280;7976;52.526;13.326;2023-02-28T03:48:55;102715.69;;;3.15;73.55
15750;BME280;7976;52.526;13.326;2023-02-28T03:51:26;102711.34;;;3.14;73.78
15750;BME280;7976;52.526;13.326;2023-02-28T03:54:02;102712.25;;;3.16;73.78
15750;BME280;7976;52.526;13.326;2023-02-28T03:56:38;102716.59;;;3.17;73.99
15750;BME280;7976;52.526;13.326;2023-02-28T03:59:13;102716.69;;;3.20;73.88
15750;BME280;7976;52.526;13.326;2023-02-28T04:01:43;102714.91;;;3.19;74.05
15750;BME280;7976;52.526;13.326;2023-02-28T04:04:12;102712.28;;;3.17;74.01
15750;BME280;7976;52.526;13.326;2023-02-28T04:06:40;102717.38;;;3.13;74.06
15750;BME280;7976;52.526;13.326;2023-02-28T04:09:13;102720.81;;;3.13;74.42
15750;BME280;7976;52.526;13.326;2023-02-28T04:11:42;102719.94;;;3.13;74.56
15750;BME280;7976;52.526;13.326;2023-02-28T04:14:11;102717.38;;;3.13;74.48
15750;BME280;7976;52.526;13.326;2023-02-28T04:16:40;102713.00;;;3.12;74.43
15750;BME280;7976;52.526;13.326;2023-02-28T04:19:09;102711.34;;;3.14;74.68
15750;BME280;7976;52.526;13.326;2023-02-28T04:21:40;102716.50;;;3.14;74.80
15750;BME280;7976;52.526;13.326;2023-02-28T04:24:11;102725.13;;;3.13;74.83
15750;BME280;7976;52.526;13.326;2023-02-28T04:26:42;102719.09;;;3.14;74.66
15750;BME280;7976;52.526;13.326;2023-02-28T04:29:11;102720.81;;;3.13;75.02
15750;BME280;7976;52.526;13.326;2023-02-28T04:31:39;102713.94;;;3.14;74.78
15750;BME280;7976;52.526;13.326;2023-02-28T04:34:07;102725.13;;;3.13;75.11
15750;BME280;7976;52.526;13.326;2023-02-28T04:36:33;102721.56;;;3.09;74.72
15750;BME280;7976;52.526;13.326;2023-02-28T04:39:00;102721.50;;;3.06;75.11
15750;BME280;7976;52.526;13.326;2023-02-28T04:41:28;102720.63;;;3.06;75.02
15750;BME280;7976;52.526;13.326;2023-02-28T04:43:55;102719.69;;;3.04;74.91
15750;BME280;7976;52.526;13.326;2023-02-28T04:46:23;102729.16;;;3.03;75.06
15750;BME280;7976;52.526;13.326;2023-02-28T04:48:50;102724.00;;;3.03;75.30
15750;BME280;7976;52.526;13.326;2023-02-28T04:51:18;102723.94;;;3.02;75.13
15750;BME280;7976;52.526;13.326;2023-02-28T04:53:47;102725.66;;;3.00;75.36
15750;BME280;7976;52.526;13.326;2023-02-28T04:56:17;102725.59;;;2.98;75.20
15750;BME280;7976;52.526;13.326;2023-02-28T04:58:45;102729.72;;;2.92;75.19
15750;BME280;7976;52.526;13.326;2023-02-28T05:01:22;102733.84;;;2.85;75.37
15750;BME280;7976;52.526;13.326;2023-02-28T05:03:51;102727.66;;;2.79;75.55
15750;BME280;7976;52.526;13.326;2023-02-28T05:06:19;102728.44;;;2.75;75.85
15750;BME280;7976;52.526;13.326;2023-02-28T05:08:47;102740.53;;;2.77;75.94
15750;BME280;7976;52.526;13.326;2023-02-28T05:11:18;102747.56;;;2.81;75.98
15750;BME280;7976;52.526;13.326;2023-02-28T05:13:46;102738.88;;;2.79;76.09
15750;BME280;7976;52.526;13.326;2023-02-28T05:16:14;102736.31;;;2.81;76.23
15750;BME280;7976;52.526;13.326;2023-02-28T05:18:42;102738.06;;;2.82;76.11
15750;BME280;7976;52.526;13.326;2023-02-28T05:21:27;102738.91;;;2.81;75.98
15750;BME280;7976;52.526;13.326;2023-02-28T05:23:56;102740.66;;;2.82;76.29
15750;BME280;7976;52.526;13.326;2023-02-28T05:26:24;102743.16;;;2.79;76.30
15750;BME280;7976;52.526;13.326;2023-02-28T05:28:54;102743.97;;;2.76;76.25
15750;BME280;7976;52.526;13.326;2023-02-28T05:31:21;102745.72;;;2.77;76.25
15750;BME280;7976;52.526;13.326;2023-02-28T05:33:48;102750.00;;;2.77;76.50
15750;BME280;7976;52.526;13.326;2023-02-28T05:36:15;102746.63;;;2.79;76.22
15750;BME280;7976;52.526;13.326;2023-02-28T05:38:42;102746.63;;;2.79;76.49
15750;BME280;7976;52.526;13.326;2023-02-28T05:41:10;102748.25;;;2.76;76.69
15750;BME280;7976;52.526;13.326;2023-02-28T05:43:37;102750.72;;;2.71;76.55
15750;BME280;7976;52.526;13.326;2023-02-28T05:46:08;102752.38;;;2.69;76.77
15750;BME280;7976;52.526;13.326;2023-02-28T05:48:37;102753.25;;;2.70;77.00
15750;BME280;7976;52.526;13.326;2023-02-28T05:51:05;102760.16;;;2.71;76.89
15750;BME280;7976;52.526;13.326;2023-02-28T05:53:33;102760.16;;;2.71;76.95
15750;BME280;7976;52.526;13.326;2023-02-28T05:56:04;102761.09;;;2.73;76.71
15750;BME280;7976;52.526;13.326;2023-02-28T05:58:31;102763.69;;;2.73;76.56
15750;BME280;7976;52.526;13.326;2023-02-28T06:00:58;102759.38;;;2.73;76.57
15750;BME280;7976;52.526;13.326;2023-02-28T06:03:27;102765.41;;;2.74;76.47
15750;BME280;7976;52.526;13.326;2023-02-28T06:05:54;102760.25;;;2.74;76.62
15750;BME280;7976;52.526;13.326;2023-02-28T06:08:21;102763.69;;;2.73;76.38
15750;BME280;7976;52.526;13.326;2023-02-28T06:10:47;102767.88;;;2.69;76.39
15750;BME280;7976;52.526;13.326;2023-02-28T06:13:14;102765.19;;;2.65;76.37
15750;BME280;7976;52.526;13.326;2023-02-28T06:15:41;102764.06;;;2.56;76.58
15750;BME280;7976;52.526;13.326;2023-02-28T06:18:08;102770.00;;;2.52;76.47
15750;BME280;7976;52.526;13.326;2023-02-28T06:20:36;102766.50;;;2.50;76.89
15750;BME280;7976;52.526;13.326;2023-02-28T06:23:03;102775.84;;;2.47;77.21
15750;BME280;7976;52.526;13.326;2023-02-28T06:25:33;102774.88;;;2.43;77.41
15750;BME280;7976;52.526;13.326;2023-02-28T06:28:00;102774.88;;;2.43;77.80
15750;BME280;7976;52.526;13.326;2023-02-28T06:30:27;102778.31;;;2.42;77.93
15750;BME280;7976;52.526;13.326;2023-02-28T06:32:56;102783.47;;;2.42;78.17
15750;BME280;7976;52.526;13.326;2023-02-28T06:35:23;102786.16;;;2.45;78.36
15750;BME280;7976;52.526;13.326;2023-02-28T06:37:51;102786.16;;;2.45;78.42
15750;BME280;7976;52.526;13.326;2023-02-28T06:40:18;102784.34;;;2.43;77.97
15750;BME280;7976;52.526;13.326;2023-02-28T06:42:45;102793.00;;;2.45;78.44
15750;BME280;7976;52.526;13.326;2023-02-28T06:45:12;102804.22;;;2.45;78.44
15750;BME280;7976;52.526;13.326;2023-02-28T06:47:41;102799.03;;;2.44;78.54
15750;BME280;7976;52.526;13.326;2023-02-28T06:50:11;102801.69;;;2.47;78.71
15750;BME280;7976;52.526;13.326;2023-02-28T06:52:39;102803.41;;;2.48;78.46
15750;BME280;7976;52.526;13.326;2023-02-28T06:55:08;102809.50;;;2.50;78.62
15750;BME280;7976;52.526;13.326;2023-02-28T06:57:36;102811.34;;;2.52;78.55
15750;BME280;7976;52.526;13.326;2023-02-28T07:00:08;102807.97;;;2.56;78.60
15750;BME280;7976;52.526;13.326;2023-02-28T07:02:35;102810.59;;;2.58;78.40
15750;BME280;7976;52.526;13.326;2023-02-28T07:05:06;102806.31;;;2.58;78.79
15750;BME280;7976;52.526;13.326;2023-02-28T07:07:33;102804.66;;;2.61;78.29
15750;BME280;7976;52.526;13.326;2023-02-28T07:10:10;102806.44;;;2.63;78.59
15750;BME280;7976;52.526;13.326;2023-02-28T07:12:37;102812.63;;;2.68;78.61
15750;BME280;7976;52.526;13.326;2023-02-28T07:15:10;102803.25;;;2.72;78.24
15750;BME280;7976;52.526;13.326;2023-02-28T07:17:37;102812.84;;;2.76;78.32
15750;BME280;7976;52.526;13.326;2023-02-28T07:20:05;102810.38;;;2.80;78.64
15750;BME280;7976;52.526;13.326;2023-02-28T07:22:32;102815.72;;;2.85;78.09
15750;BME280;7976;52.526;13.326;2023-02-28T07:25:11;102811.47;;;2.88;77.89
15750;BME280;7976;52.526;13.326;2023-02-28T07:27:38;102810.69;;;2.91;77.93
15750;BME280;7976;52.526;13.326;2023-02-28T07:30:09;102807.31;;;2.93;77.70
15750;BME280;7976;52.526;13.326;2023-02-28T07:32:37;102810.81;;;2.95;77.55
15750;BME280;7976;52.526;13.326;2023-02-28T07:35:08;102818.72;;;3.00;77.58
15750;BME280;7976;52.526;13.326;2023-02-28T07:37:35;102819.72;;;3.05;77.63
15750;BME280;7976;52.526;13.326;2023-02-28T07:40:12;102814.63;;;3.08;77.42
15750;BME280;7976;52.526;13.326;2023-02-28T07:42:40;102816.47;;;3.13;77.27
15750;BME280;7976;52.526;13.326;2023-02-28T07:45:10;102812.22;;;3.15;77.15
15750;BME280;7976;52.526;13.326;2023-02-28T07:47:38;102821.81;;;3.19;76.77
15750;BME280;7976;52.526;13.326;2023-02-28T07:50:14;102814.25;;;3.27;76.88
15750;BME280;7976;52.526;13.326;2023-02-28T07:52:42;102815.34;;;3.35;76.63
15750;BME280;7976;52.526;13.326;2023-02-28T07:55:11;102822.41;;;3.42;76.37
15750;BME280;7976;52.526;13.326;2023-02-28T07:57:39;102819.16;;;3.49;76.04
15750;BME280;7976;52.526;13.326;2023-02-28T08:00:09;102817.56;;;3.54;75.58
15750;BME280;7976;52.526;13.326;2023-02-28T08:02:39;102820.34;;;3.61;75.18
15750;BME280;7976;52.526;13.326;2023-02-28T08:05:07;102826.56;;;3.68;74.72
15750;BME280;7976;52.526;13.326;2023-02-28T08:07:34;102826.69;;;3.74;74.43
15750;BME280;7976;52.526;13.326;2023-02-28T08:10:01;102823.38;;;3.79;74.14
15750;BME280;7976;52.526;13.326;2023-02-28T08:12:29;102816.56;;;3.83;74.07
15750;BME280;7976;52.526;13.326;2023-02-28T08:14:56;102813.09;;;3.82;74.41
15750;BME280;7976;52.526;13.326;2023-02-28T08:17:23;102811.47;;;3.86;73.83
15750;BME280;7976;52.526;13.326;2023-02-28T08:19:50;102821.94;;;3.92;73.48
15750;BME280;7976;52.526;13.326;2023-02-28T08:22:17;102816.91;;;3.97;71.77
15750;BME280;7976;52.526;13.326;2023-02-28T08:24:44;102816.13;;;4.02;66.48
15750;BME280;7976;52.526;13.326;2023-02-28T08:27:10;102818.91;;;4.08;62.83
15750;BME280;7976;52.526;13.326;2023-02-28T08:29:40;102816.47;;;4.16;59.81
15750;BME280;7976;52.526;13.326;2023-02-28T08:32:10;102817.47;;;4.22;59.14
15750;BME280;7976;52.526;13.326;2023-02-28T08:34:40;102814.19;;;4.29;58.73
15750;BME280;7976;52.526;13.326;2023-02-28T08:37:06;102816.84;;;4.32;56.83
15750;BME280;7976;52.526;13.326;2023-02-28T08:39:41;102814.34;;;4.35;55.04
15750;BME280;7976;52.526;13.326;2023-02-28T08:42:08;102812.72;;;4.40;54.40
15750;BME280;7976;52.526;13.326;2023-02-28T08:44:35;102811.97;;;4.47;53.89
15750;BME280;7976;52.526;13.326;2023-02-28T08:47:04;102807.78;;;4.52;53.44
15750;BME280;7976;52.526;13.326;2023-02-28T08:49:31;102807.03;;;4.58;53.03
15750;BME280;7976;52.526;13.326;2023-02-28T08:52:01;102816.72;;;4.66;53.31
15750;BME280;7976;52.526;13.326;2023-02-28T08:54:30;102814.25;;;4.72;53.48
15750;BME280;7976;52.526;13.326;2023-02-28T08:56:58;102821.28;;;4.78;52.78
15750;BME280;7976;52.526;13.326;2023-02-28T08:59:25;102816.16;;;4.81;52.07
15750;BME280;7976;52.526;13.326;2023-02-28T09:01:52;102817.94;;;4.83;51.25
15750;BME280;7976;52.526;13.326;2023-02-28T09:04:21;102814.53;;;4.87;50.95
15750;BME280;7976;52.526;13.326;2023-02-28T09:06:48;102819.00;;;4.93;50.76
15750;BME280;7976;52.526;13.326;2023-02-28T09:09:15;102813.88;;;4.97;50.78
15750;BME280;7976;52.526;13.326;2023-02-28T09:11:42;102809.59;;;4.99;50.99
15750;BME280;7976;52.526;13.326;2023-02-28T09:14:09;102820.06;;;5.04;51.29
15750;BME280;7976;52.526;13.326;2023-02-28T09:16:35;102812.38;;;5.08;50.83
15750;BME280;7976;52.526;13.326;2023-02-28T09:19:02;102812.47;;;5.14;50.47
15750;BME280;7976;52.526;13.326;2023-02-28T09:21:30;102817.81;;;5.21;49.98
15750;BME280;7976;52.526;13.326;2023-02-28T09:23:57;102822.19;;;5.25;49.43
15750;BME280;7976;52.526;13.326;2023-02-28T09:26:27;102811.84;;;5.26;49.46
15750;BME280;7976;52.526;13.326;2023-02-28T09:28:54;102816.25;;;5.30;50.23
15750;BME280;7976;52.526;13.326;2023-02-28T09:31:26;102813.66;;;5.32;50.56
15750;BME280;7976;52.526;13.326;2023-02-28T09:33:56;102816.38;;;5.38;49.95
15750;BME280;7976;52.526;13.326;2023-02-28T09:36:25;102819.81;;;5.37;49.32
15750;BME280;7976;52.526;13.326;2023-02-28T09:38:55;102811.97;;;5.32;48.54
15750;BME280;7976;52.526;13.326;2023-02-28T09:41:24;102818.09;;;5.36;48.51
15750;BME280;7976;52.526;13.326;2023-02-28T09:43:56;102818.09;;;5.36;48.82
15750;BME280;7976;52.526;13.326;2023-02-28T09:46:32;102812.03;;;5.37;48.57
15750;BME280;7976;52.526;13.326;2023-02-28T09:49:05;102823.41;;;5.43;48.80
15750;BME280;7976;52.526;13.326;2023-02-28T09:51:50;102819.03;;;5.41;48.33
15750;BME280;7976;52.526;13.326;2023-02-28T09:54:23;102821.63;;;5.41;47.96
15750;BME280;7976;52.526;13.326;2023-02-28T09:56:53;102822.56;;;5.44;48.12
15750;BME280;7976;52.526;13.326;2023-02-28T09:59:38;102820.03;;;5.49;47.98
15750;BME280;7976;52.526;13.326;2023-02-28T10:02:24;102815.81;;;5.55;47.82
15750;BME280;7976;52.526;13.326;2023-02-28T10:05:08;102822.03;;;5.65;47.70
15750;BME280;7976;52.526;13.326;2023-02-28T10:07:53;102827.13;;;5.59;46.99
15750;BME280;7976;52.526;13.326;2023-02-28T10:10:33;102824.59;;;5.62;47.54
15750;BME280;7976;52.526;13.326;2023-02-28T10:13:48;102823.81;;;5.67;47.09
15750;BME280;7976;52.526;13.326;2023-02-28T10:16:23;102820.38;;;5.68;47.25
15750;BME280;7976;52.526;13.326;2023-02-28T10:18:56;102826.50;;;5.72;47.01
15750;BME280;7976;52.526;13.326;2023-02-28T10:21:28;102828.28;;;5.74;46.99
15750;BME280;7976;52.526;13.326;2023-02-28T10:24:09;102819.63;;;5.75;46.41
15750;BME280;7976;52.526;13.326;2023-02-28T10:26:39;102823.97;;;5.78;46.69
15750;BME280;7976;52.526;13.326;2023-02-28T10:29:10;102812.06;;;5.86;47.03
15750;BME280;7976;52.526;13.326;2023-02-28T10:31:39;102812.13;;;5.92;46.59
15750;BME280;7976;52.526;13.326;2023-02-28T10:34:07;102810.47;;;5.97;46.40
15750;BME280;7976;52.526;13.326;2023-02-28T10:36:33;102812.22;;;5.98;46.22
15750;BME280;7976;52.526;13.326;2023-02-28T10:39:00;102816.63;;;6.02;46.57
15750;BME280;7976;52.526;13.326;2023-02-28T10:41:30;102820.13;;;6.05;46.40
15750;BME280;7976;52.526;13.326;2023-02-28T10:44:19;102818.47;;;6.10;46.70
15750;BME280;7976;52.526;13.326;2023-02-28T10:46:48;102818.66;;;6.21;46.65
15750;BME280;7976;52.526;13.326;2023-02-28T10:49:20;102806.63;;;6.29;46.44
15750;BME280;7976;52.526;13.326;2023-02-28T10:51:52;102817.97;;;6.34;46.38
15750;BME280;7976;52.526;13.326;2023-02-28T10:54:23;102808.47;;;6.36;45.74
15750;BME280;7976;52.526;13.326;2023-02-28T10:57:17;102814.53;;;6.38;46.05
15750;BME280;7976;52.526;13.326;2023-02-28T10:59:51;102808.53;;;6.42;46.01
15750;BME280;7976;52.526;13.326;2023-02-28T11:02:35;102804.22;;;6.44;45.96
15750;BME280;7976;52.526;13.326;2023-02-28T11:05:26;102799.06;;;6.46;46.08
15750;BME280;7976;52.526;13.326;2023-02-28T11:07:55;102794.66;;;6.43;45.95
15750;BME280;7976;52.526;13.326;2023-02-28T11:10:29;102786.78;;;6.34;45.72
15750;BME280;7976;52.526;13.326;2023-02-28T11:13:01;102775.34;;;6.23;45.81
15750;BME280;7976;52.526;13.326;2023-02-28T11:15:33;102777.97;;;6.24;45.96
15750;BME280;7976;52.526;13.326;2023-02-28T11:18:14;102778.88;;;6.28;45.86
15750;BME280;7976;52.526;13.326;2023-02-28T11:20:49;102776.34;;;6.31;45.49
15750;BME280;7976;52.526;13.326;2023-02-28T11:23:18;102775.53;;;6.38;45.48
15750;BME280;7976;52.526;13.326;2023-02-28T11:25:49;102773.84;;;6.42;45.27
15750;BME280;7976;52.526;13.326;2023-02-28T11:28:29;102783.41;;;6.41;45.44
15750;BME280;7976;52.526;13.326;2023-02-28T11:31:08;102771.19;;;6.37;44.96
15750;BME280;7976;52.526;13.326;2023-02-28T11:33:43;102771.19;;;6.35;45.01
15750;BME280;7976;52.526;13.326;2023-02-28T11:36:14;102766.00;;;6.37;45.68
15750;BME280;7976;52.526;13.326;2023-02-28T11:38:43;102775.53;;;6.38;45.94
15750;BME280;7976;52.526;13.326;2023-02-28T11:44:46;102770.19;;;6.24;45.74
15750;BME280;7976;52.526;13.326;2023-02-28T11:47:32;102771.06;;;6.28;45.95
15750;BME280;7976;52.526;13.326;2023-02-28T11:50:16;102772.13;;;6.41;46.15
15750;BME280;7976;52.526;13.326;2023-02-28T11:52:53;102771.44;;;6.55;46.22
15750;BME280;7976;52.526;13.326;2023-02-28T11:55:25;102772.44;;;6.65;46.65
15750;BME280;7976;52.526;13.326;2023-02-28T11:58:05;102775.06;;;6.66;46.31
15750;BME280;7976;52.526;13.326;2023-02-28T12:01:01;102772.47;;;6.68;45.91
15750;BME280;7976;52.526;13.326;2023-02-28T12:03:43;102774.97;;;6.60;45.44
15750;BME280;7976;52.526;13.326;2023-02-28T12:06:21;102764.56;;;6.62;45.66
15750;BME280;7976;52.526;13.326;2023-02-28T12:09:09;102757.66;;;6.64;45.69
15750;BME280;7976;52.526;13.326;2023-02-28T12:11:50;102768.19;;;6.71;45.79
15750;BME280;7976;52.526;13.326;2023-02-28T12:14:43;102762.13;;;6.75;45.77
15750;BME280;7976;52.526;13.326;2023-02-28T12:17:28;102766.47;;;6.75;45.63
15750;BME280;7976;52.526;13.326;2023-02-28T12:20:16;102765.50;;;6.68;45.14
15750;BME280;7976;52.526;13.326;2023-02-28T12:22:57;102756.72;;;6.57;45.34
15750;BME280;7976;52.526;13.326;2023-02-28T12:25:56;102754.16;;;6.62;45.58
15750;BME280;7976;52.526;13.326;2023-02-28T12:28:32;102753.34;;;6.63;45.50
15750;BME280;7976;52.526;13.326;2023-02-28T12:31:08;102751.63;;;6.65;45.46
15750;BME280;7976;52.526;13.326;2023-02-28T12:33:42;102740.41;;;6.70;45.37
15750;BME280;7976;52.526;13.326;2023-02-28T12:36:17;102736.13;;;6.75;45.64
15750;BME280;7976;52.526;13.326;2023-02-28T12:38:52;102724.03;;;6.79;45.86
15750;BME280;7976;52.526;13.326;2023-02-28T12:41:27;102732.66;;;6.75;45.46
15750;BME280;7976;52.526;13.326;2023-02-28T12:44:02;102723.97;;;6.73;45.33
15750;BME280;7976;52.526;13.326;2023-02-28T12:46:35;102723.06;;;6.71;45.43
15750;BME280;7976;52.526;13.326;2023-02-28T12:49:09;102718.78;;;6.74;45.51
15750;BME280;7976;52.526;13.326;2023-02-28T12:51:46;102709.25;;;6.75;45.64
15750;BME280;7976;52.526;13.326;2023-02-28T12:54:24;102709.22;;;6.73;45.71
15750;BME280;7976;52.526;13.326;2023-02-28T12:57:02;102707.50;;;6.75;45.63
15750;BME280;7976;52.526;13.326;2023-02-28T12:59:41;102710.13;;;6.77;45.72
15750;BME280;7976;52.526;13.326;2023-02-28T13:02:50;102692.78;;;6.79;45.90
15750;BME280;7976;52.526;13.326;2023-02-28T13:06:10;102695.50;;;6.86;45.82
15750;BME280;7976;52.526;13.326;2023-02-28T13:09:08;102683.31;;;6.85;45.48
15750;BME280;7976;52.526;13.326;2023-02-28T13:11:42;102679.81;;;6.80;45.11
15750;BME280;7976;52.526;13.326;2023-02-28T13:14:23;102678.06;;;6.78;45.33
15750;BME280;7976;52.526;13.326;2023-02-28T13:17:11;102684.09;;;6.75;45.57
15750;BME280;7976;52.526;13.326;2023-02-28T13:19:43;102686.66;;;6.72;45.06
15750;BME280;7976;52.526;13.326;2023-02-28T13:22:37;102682.34;;;6.74;45.08
15750;BME280;7976;52.526;13.326;2023-02-28T13:25:50;102678.25;;;7.00;45.17
15750;BME280;7976;52.526;13.326;2023-02-28T13:29:27;102687.88;;;7.10;44.70
15750;BME280;7976;52.526;13.326;2023-02-28T13:32:41;102681.78;;;7.05;44.29
15750;BME280;7976;52.526;13.326;2023-02-28T13:38:36;102683.41;;;6.94;44.81
15750;BME280;7976;52.526;13.326;2023-02-28T13:41:46;102680.84;;;6.97;44.96
15750;BME280;7976;52.526;13.326;2023-02-28T13:44:16;102679.13;;;6.98;45.05
15750;BME280;7976;52.526;13.326;2023-02-28T13:47:21;102680.81;;;6.93;44.55